East Laport, North Carolina
Current Conditions -  °F | °C
As of 7:54 AM on Friday 24 Oct 2014 (Local Time) from KAVL Reporting Station
Clear Clear  
Wind Chill: 37°   Ceiling: Unl
Heat Index: 40°   Visibility: 10mi
Dew Point: 37°   Wind: 5mph
Humidity: 89%   Direction: 350°N
Pressure: 30.1"   Gusts: NA
Location:  35.2608°N, 83.1173°W
Report Text: KAVL 241154Z 35004KT 10SM CLR 04/03 A3010 RMK AO2 SLP190 T00440028 10089 20039 53005
Loading
Personal Weather Stations






























Interactive Weather Map
Tropical Storm Tracking
New forecast layout! Learn more

10-Day Weather Forecast

Advertisements
Track Severe Weather on mobile